createdAt,value
2022-12-04T00:06:16.654Z,38.03
2022-12-04T00:09:04.245Z,50.54
2022-12-04T00:11:51.941Z,43.60
2022-12-04T00:15:00.747Z,61.45
2022-12-04T00:17:47.043Z,44.95
2022-12-04T00:20:34.623Z,41.63
2022-12-04T00:23:22.214Z,41.21
2022-12-04T00:26:09.810Z,37.84
2022-12-04T00:28:57.382Z,31.96
2022-12-04T00:31:45.013Z,29.75
2022-12-04T00:34:32.603Z,31.40
2022-12-04T00:37:20.199Z,29.91
2022-12-04T00:40:07.801Z,28.08
2022-12-04T00:42:55.375Z,32.63
2022-12-04T00:45:42.976Z,28.01
2022-12-04T00:48:30.610Z,31.74
2022-12-04T00:51:18.173Z,34.79
2022-12-04T00:54:05.754Z,34.63
2022-12-04T00:56:53.347Z,30.96
2022-12-04T00:59:40.954Z,30.58
2022-12-04T01:02:28.550Z,29.89
2022-12-04T01:05:16.170Z,37.93
2022-12-04T01:08:03.791Z,34.84
2022-12-04T01:10:51.474Z,45.92
2022-12-04T01:13:39.071Z,58.63
2022-12-04T01:16:26.734Z,37.40
2022-12-04T01:19:14.363Z,42.98
2022-12-04T01:22:01.960Z,34.02
2022-12-04T01:24:49.566Z,29.60
2022-12-04T01:27:37.186Z,32.51
2022-12-04T01:30:24.781Z,36.64
2022-12-04T01:33:12.353Z,30.38
2022-12-04T01:36:00.001Z,29.11
2022-12-04T01:38:47.609Z,28.85
2022-12-04T01:41:35.196Z,35.31
2022-12-04T01:44:22.816Z,44.90
2022-12-04T01:47:10.406Z,30.11
2022-12-04T01:49:58.107Z,30.34
2022-12-04T01:52:45.807Z,31.98
2022-12-04T01:55:33.402Z,36.62
2022-12-04T01:58:20.973Z,40.19
2022-12-04T02:01:09.432Z,34.59
2022-12-04T02:03:57.285Z,41.30
2022-12-04T02:06:44.879Z,45.52
2022-12-04T02:09:32.434Z,28.96
2022-12-04T02:12:20.065Z,41.12
2022-12-04T02:15:07.657Z,28.15
2022-12-04T02:17:55.265Z,30.70
2022-12-04T02:20:42.828Z,35.43
2022-12-04T02:23:30.399Z,31.38
2022-12-04T02:26:17.979Z,36.11
2022-12-04T02:29:05.568Z,34.58
2022-12-04T02:31:53.155Z,35.44
2022-12-04T02:34:40.740Z,48.42
2022-12-04T02:37:28.325Z,44.04
2022-12-04T02:40:15.932Z,42.72
2022-12-04T02:43:03.517Z,38.62
2022-12-04T02:45:51.178Z,38.89
2022-12-04T02:48:38.799Z,49.41
2022-12-04T02:51:26.387Z,56.39
2022-12-04T02:54:13.936Z,79.64
2022-12-04T02:57:01.527Z,59.87
2022-12-04T02:59:49.105Z,58.54
2022-12-04T03:02:36.795Z,73.24
2022-12-04T03:05:24.396Z,56.42
2022-12-04T03:08:12.073Z,51.78
2022-12-04T03:10:59.675Z,53.51
2022-12-04T03:13:47.300Z,89.05
2022-12-04T03:16:34.926Z,57.41
2022-12-04T03:19:22.521Z,39.06
2022-12-04T03:22:10.130Z,37.10
2022-12-04T03:24:57.704Z,42.40
2022-12-04T03:27:45.443Z,38.04
2022-12-04T03:30:33.011Z,31.91
2022-12-04T03:33:20.635Z,36.82
2022-12-04T03:36:08.232Z,36.57
2022-12-04T03:38:55.811Z,40.48
2022-12-04T03:41:49.467Z,37.62
2022-12-04T03:44:37.500Z,29.23
2022-12-04T03:47:25.071Z,39.95
2022-12-04T03:50:12.654Z,33.00
2022-12-04T03:53:00.230Z,31.84
2022-12-04T03:55:47.820Z,31.73
2022-12-04T03:58:35.398Z,49.16
2022-12-04T04:01:23.192Z,44.20
2022-12-04T04:04:10.826Z,41.08
2022-12-04T04:06:58.421Z,37.63
2022-12-04T04:09:46.024Z,34.45
2022-12-04T04:12:33.595Z,37.00
2022-12-04T04:15:22.331Z,30.38
2022-12-04T04:18:10.819Z,30.18
2022-12-04T04:20:58.419Z,49.85
2022-12-04T04:23:45.977Z,35.39
2022-12-04T04:26:33.561Z,32.05
2022-12-04T04:29:21.146Z,37.64
2022-12-04T04:32:08.742Z,33.35
2022-12-04T04:34:56.338Z,41.39
2022-12-04T04:37:43.963Z,39.63
2022-12-04T04:40:31.563Z,31.98
2022-12-04T04:43:19.137Z,30.03
2022-12-04T04:46:06.771Z,31.78
2022-12-04T04:48:54.409Z,33.00
2022-12-04T04:51:41.998Z,30.39
2022-12-04T04:54:29.582Z,35.84
2022-12-04T04:57:17.174Z,33.16
2022-12-04T05:00:04.770Z,40.94
2022-12-04T05:02:52.469Z,32.17
2022-12-04T05:05:40.035Z,32.18
2022-12-04T05:08:27.626Z,30.45
2022-12-04T05:11:15.182Z,29.76
2022-12-04T05:14:02.777Z,28.33
2022-12-04T05:16:50.358Z,29.07
2022-12-04T05:19:37.953Z,30.10
2022-12-04T05:22:25.550Z,28.68
2022-12-04T05:25:13.161Z,30.24
2022-12-04T05:28:00.763Z,29.44
2022-12-04T05:30:48.449Z,29.81
2022-12-04T05:33:36.019Z,33.07
2022-12-04T05:36:23.588Z,37.89
2022-12-04T05:39:11.166Z,39.70
2022-12-04T05:41:58.766Z,46.64
2022-12-04T05:44:46.342Z,40.48
2022-12-04T05:47:33.946Z,30.64
2022-12-04T05:50:21.551Z,27.45
2022-12-04T05:53:09.131Z,28.00
2022-12-04T05:55:56.717Z,27.55
2022-12-04T05:58:44.287Z,27.53
2022-12-04T06:01:32.041Z,30.90
2022-12-04T06:04:19.643Z,26.86
2022-12-04T06:07:07.255Z,29.64
2022-12-04T06:09:54.973Z,27.51
2022-12-04T06:12:42.750Z,28.10
2022-12-04T06:15:30.371Z,28.12
2022-12-04T06:18:17.956Z,28.07
2022-12-04T06:21:05.600Z,31.29
2022-12-04T06:23:53.232Z,30.50
2022-12-04T06:26:57.475Z,30.96
2022-12-04T06:29:48.382Z,29.52
2022-12-04T06:32:35.954Z,28.17
2022-12-04T06:35:23.539Z,27.53
2022-12-04T06:38:11.147Z,27.95
2022-12-04T06:40:58.746Z,28.11
2022-12-04T06:43:46.343Z,26.75
2022-12-04T06:46:33.916Z,26.11
2022-12-04T06:49:21.523Z,26.58
2022-12-04T06:52:09.117Z,27.07
2022-12-04T06:54:56.802Z,27.12
2022-12-04T06:57:44.374Z,28.02
2022-12-04T07:00:31.988Z,27.07
2022-12-04T07:03:19.574Z,25.97
2022-12-04T07:06:07.156Z,25.22
2022-12-04T07:08:54.722Z,26.61
2022-12-04T07:11:42.330Z,26.67
2022-12-04T07:14:29.897Z,27.34
2022-12-04T07:17:17.560Z,26.81
2022-12-04T07:20:05.164Z,28.56
2022-12-04T07:22:52.780Z,36.36
2022-12-04T07:25:40.359Z,51.50
2022-12-04T07:28:27.943Z,54.53
2022-12-04T07:31:15.581Z,51.88
2022-12-04T07:34:03.191Z,49.30
2022-12-04T07:36:50.743Z,28.98
2022-12-04T07:39:38.429Z,26.76
2022-12-04T07:42:27.978Z,27.64
2022-12-04T07:45:15.644Z,27.37
2022-12-04T07:48:03.223Z,29.25
2022-12-04T07:50:50.837Z,27.47
2022-12-04T07:53:38.444Z,28.39
2022-12-04T07:56:26.047Z,28.50
2022-12-04T07:59:13.653Z,27.05
2022-12-04T08:02:01.312Z,26.05
2022-12-04T08:04:49.044Z,26.00
2022-12-04T08:07:36.811Z,24.80
2022-12-04T08:10:24.567Z,26.22
2022-12-04T08:13:12.128Z,25.71
2022-12-04T08:15:59.715Z,26.07
2022-12-04T08:18:47.279Z,24.67
2022-12-04T08:21:34.878Z,23.83
2022-12-04T08:24:22.477Z,24.37
2022-12-04T08:27:10.058Z,24.25
2022-12-04T08:29:57.815Z,24.13
2022-12-04T08:32:45.666Z,26.14
2022-12-04T08:35:33.240Z,25.56
2022-12-04T08:38:20.835Z,25.08
2022-12-04T08:41:08.405Z,25.63
2022-12-04T08:43:56.008Z,25.24
2022-12-04T08:46:43.662Z,24.83
2022-12-04T08:49:31.322Z,24.69
2022-12-04T08:52:18.890Z,24.73
2022-12-04T08:55:06.497Z,25.45
2022-12-04T08:57:54.095Z,23.87
2022-12-04T09:00:41.707Z,23.40
2022-12-04T09:03:31.342Z,23.26
2022-12-04T09:06:18.904Z,22.60
2022-12-04T09:09:06.489Z,23.76
2022-12-04T09:11:54.061Z,23.94
2022-12-04T09:14:41.662Z,23.66
2022-12-04T09:17:29.238Z,21.55
2022-12-04T09:20:16.810Z,23.25
2022-12-04T09:23:05.418Z,23.36
2022-12-04T09:25:53.304Z,23.17
2022-12-04T09:28:40.908Z,22.94
2022-12-04T09:31:28.600Z,22.24
2022-12-04T09:34:16.246Z,23.08
2022-12-04T09:37:03.849Z,22.93
2022-12-04T09:39:51.432Z,24.01
2022-12-04T09:42:39.023Z,26.80
2022-12-04T09:45:26.592Z,24.95
2022-12-04T09:48:14.276Z,28.73
2022-12-04T09:51:03.832Z,82.87
2022-12-04T09:53:51.475Z,103.65
2022-12-04T09:56:39.056Z,35.11
2022-12-04T09:59:26.645Z,27.23
2022-12-04T10:02:14.253Z,26.87
2022-12-04T10:05:01.905Z,26.20
2022-12-04T10:07:49.597Z,24.62
2022-12-04T10:10:37.259Z,24.65
2022-12-04T10:13:24.845Z,24.78
2022-12-04T10:16:12.524Z,24.94
2022-12-04T10:19:00.165Z,24.03
2022-12-04T10:21:47.766Z,24.10
2022-12-04T10:24:35.350Z,24.53
2022-12-04T10:27:22.923Z,24.89
2022-12-04T10:30:10.580Z,24.63
2022-12-04T10:32:58.152Z,23.82
2022-12-04T10:35:45.742Z,24.65
2022-12-04T10:38:33.314Z,24.26
2022-12-04T10:41:20.937Z,23.76
2022-12-04T10:44:08.497Z,23.88
2022-12-04T10:46:56.189Z,24.82
2022-12-04T10:49:43.813Z,24.98
2022-12-04T10:52:31.406Z,26.52
2022-12-04T10:55:18.986Z,26.09
2022-12-04T10:58:06.574Z,25.19
2022-12-04T11:00:54.166Z,25.42
2022-12-04T11:03:41.816Z,27.20
2022-12-04T11:06:29.419Z,27.86
2022-12-04T11:09:17.029Z,28.38
2022-12-04T11:12:04.599Z,26.56
2022-12-04T11:14:52.219Z,27.99
2022-12-04T11:17:39.826Z,28.16
2022-12-04T11:20:27.421Z,27.29
2022-12-04T11:23:14.999Z,27.43
2022-12-04T11:26:06.109Z,26.99
2022-12-04T11:28:54.094Z,27.33
2022-12-04T11:31:41.838Z,24.83
2022-12-04T11:34:29.495Z,23.45
2022-12-04T11:37:17.106Z,25.27
2022-12-04T11:40:04.655Z,24.68
2022-12-04T11:42:52.223Z,23.98
2022-12-04T11:45:39.804Z,24.23
2022-12-04T11:48:27.406Z,23.53
2022-12-04T11:51:14.995Z,23.56
2022-12-04T11:54:02.586Z,24.27
2022-12-04T11:56:50.193Z,22.31
2022-12-04T11:59:37.791Z,23.44
2022-12-04T12:02:25.465Z,24.88
2022-12-04T12:05:13.099Z,24.22
2022-12-04T12:08:02.899Z,23.25
2022-12-04T12:10:50.855Z,24.03
2022-12-04T12:13:38.470Z,22.89
2022-12-04T12:16:26.153Z,25.02
2022-12-04T12:19:15.790Z,24.64
2022-12-04T12:22:05.457Z,21.45
2022-12-04T12:24:54.683Z,21.20
2022-12-04T12:27:42.573Z,22.53
2022-12-04T12:30:30.140Z,22.27
2022-12-04T12:33:17.750Z,21.70
2022-12-04T12:36:05.325Z,21.74
2022-12-04T12:38:52.940Z,22.42
2022-12-04T12:41:40.537Z,21.90
2022-12-04T12:44:28.136Z,21.64
2022-12-04T12:47:15.696Z,21.25
2022-12-04T12:50:03.292Z,20.01
2022-12-04T12:52:52.873Z,20.21
2022-12-04T12:55:40.482Z,21.62
2022-12-04T12:58:28.047Z,23.03
2022-12-04T13:01:15.725Z,21.43
2022-12-04T13:04:03.378Z,20.55
2022-12-04T13:06:50.993Z,21.58
2022-12-04T13:09:38.597Z,21.38
2022-12-04T13:12:26.182Z,21.55
2022-12-04T13:15:13.753Z,21.78
2022-12-04T13:18:01.371Z,20.84
2022-12-04T13:20:48.922Z,19.97
2022-12-04T13:23:36.519Z,18.61
2022-12-04T13:26:24.142Z,20.03
2022-12-04T13:29:11.749Z,21.56
2022-12-04T13:31:59.373Z,22.62
2022-12-04T13:34:46.995Z,21.83
2022-12-04T13:37:34.554Z,22.88
2022-12-04T13:40:22.132Z,24.21
2022-12-04T13:43:09.702Z,23.46
2022-12-04T13:45:57.345Z,22.58
2022-12-04T13:48:44.949Z,23.48
2022-12-04T13:51:32.526Z,23.40
2022-12-04T13:54:20.086Z,22.80
2022-12-04T13:57:07.753Z,22.72
2022-12-04T13:59:55.371Z,23.60
2022-12-04T14:02:43.025Z,23.09
2022-12-04T14:05:30.697Z,24.45
2022-12-04T14:08:18.362Z,23.12
2022-12-04T14:11:05.964Z,21.43
2022-12-04T14:13:53.557Z,21.67
2022-12-04T14:16:41.214Z,22.08
2022-12-04T14:19:28.890Z,20.94
2022-12-04T14:22:16.442Z,21.46
2022-12-04T14:25:04.037Z,20.56
2022-12-04T14:27:51.592Z,20.26
2022-12-04T14:30:39.250Z,19.41
2022-12-04T14:33:26.892Z,18.77
2022-12-04T14:36:14.490Z,19.37
2022-12-04T14:39:02.042Z,19.66
2022-12-04T14:41:51.637Z,18.87
2022-12-04T14:44:39.224Z,19.48
2022-12-04T14:47:26.811Z,18.96
2022-12-04T14:50:14.390Z,18.57
2022-12-04T14:53:03.966Z,19.03
2022-12-04T14:55:51.535Z,18.62
2022-12-04T14:58:39.110Z,18.90
2022-12-04T15:01:29.345Z,19.52
2022-12-04T15:04:17.526Z,19.91
2022-12-04T15:07:05.143Z,20.53
2022-12-04T15:09:52.741Z,20.14
2022-12-04T15:12:40.347Z,19.80
2022-12-04T15:15:28.082Z,19.33
2022-12-04T15:18:15.751Z,19.43
2022-12-04T15:21:03.390Z,19.68
2022-12-04T15:23:51.005Z,19.88
2022-12-04T15:26:38.585Z,19.74
2022-12-04T15:29:26.173Z,21.11
2022-12-04T15:32:13.758Z,25.34
2022-12-04T15:35:01.322Z,25.21
2022-12-04T15:37:48.925Z,24.27
2022-12-04T15:40:36.519Z,28.16
2022-12-04T15:43:24.297Z,26.81
2022-12-04T15:46:11.909Z,24.61
2022-12-04T15:48:59.526Z,24.91
2022-12-04T15:51:47.113Z,24.19
2022-12-04T15:54:34.689Z,23.47
2022-12-04T15:57:22.294Z,24.41
2022-12-04T16:00:09.895Z,24.26
2022-12-04T16:02:57.470Z,24.15
2022-12-04T16:05:45.065Z,22.90
2022-12-04T16:08:32.618Z,23.30
2022-12-04T16:11:20.216Z,24.10
2022-12-04T16:14:07.787Z,24.00
2022-12-04T16:16:55.359Z,25.03
2022-12-04T16:19:42.943Z,25.72
2022-12-04T16:22:30.513Z,26.42
2022-12-04T16:25:18.132Z,27.93
2022-12-04T16:28:05.721Z,30.36
2022-12-04T16:30:53.358Z,28.19
2022-12-04T16:33:41.005Z,28.16
2022-12-04T16:36:28.575Z,25.89
2022-12-04T16:39:16.157Z,25.71
2022-12-04T16:42:03.750Z,26.52
2022-12-04T16:44:51.371Z,23.98
2022-12-04T16:47:38.934Z,23.35
2022-12-04T16:50:26.529Z,23.21
2022-12-04T16:53:14.119Z,24.00
2022-12-04T16:56:01.733Z,24.19
2022-12-04T16:58:49.326Z,23.44
2022-12-04T17:01:36.959Z,22.99
2022-12-04T17:04:24.642Z,22.76
2022-12-04T17:07:12.342Z,23.32
2022-12-04T17:09:59.954Z,23.79
2022-12-04T17:12:47.516Z,24.72
2022-12-04T17:15:35.083Z,25.95
2022-12-04T17:18:22.636Z,26.03
2022-12-04T17:21:10.247Z,24.96
2022-12-04T17:23:40.695Z,22.49
2022-12-04T17:26:08.342Z,22.63
2022-12-04T17:28:35.697Z,23.68
2022-12-04T17:31:03.176Z,22.31
2022-12-04T17:33:49.432Z,21.63
2022-12-04T17:36:37.003Z,22.48
2022-12-04T17:39:24.596Z,22.58
2022-12-04T17:42:12.150Z,23.82
2022-12-04T17:44:59.930Z,50.03
2022-12-04T17:47:47.566Z,26.46
2022-12-04T17:50:35.148Z,203.65
2022-12-04T17:53:22.737Z,303.81
2022-12-04T17:56:10.340Z,305.82
2022-12-04T17:58:57.925Z,419.50
2022-12-04T18:01:45.524Z,330.22
2022-12-04T18:04:33.122Z,213.24
2022-12-04T18:07:20.750Z,270.17
2022-12-04T18:10:08.350Z,208.32
2022-12-04T18:12:55.963Z,90.32
2022-12-04T18:15:43.570Z,63.64
2022-12-04T18:18:31.143Z,128.97
2022-12-04T18:21:18.738Z,106.25
2022-12-04T18:24:06.334Z,218.02
2022-12-04T18:26:53.969Z,108.35
2022-12-04T18:29:41.605Z,115.61
2022-12-04T18:32:29.202Z,52.52
2022-12-04T18:35:16.814Z,84.20
2022-12-04T18:38:04.412Z,75.44
2022-12-04T18:40:52.001Z,94.90
2022-12-04T18:43:39.591Z,88.36
2022-12-04T18:46:27.244Z,49.32
2022-12-04T18:49:14.933Z,39.47
2022-12-04T18:52:02.535Z,36.48
2022-12-04T18:54:50.167Z,75.66
2022-12-04T18:57:37.805Z,44.55
2022-12-04T19:00:25.377Z,36.06
2022-12-04T19:03:12.991Z,43.86
2022-12-04T19:06:00.621Z,44.19
2022-12-04T19:08:48.245Z,46.62
2022-12-04T19:11:35.822Z,33.38
2022-12-04T19:14:23.886Z,70.75
2022-12-04T19:17:11.503Z,29.74
2022-12-04T19:19:59.449Z,33.71
2022-12-04T19:22:47.131Z,36.95
2022-12-04T19:25:34.773Z,38.98
2022-12-04T19:28:22.374Z,82.92
2022-12-04T19:31:09.963Z,244.59
2022-12-04T19:33:57.577Z,61.53
2022-12-04T19:36:45.171Z,49.49
2022-12-04T19:39:32.774Z,60.24
2022-12-04T19:42:20.350Z,38.59
2022-12-04T19:45:07.926Z,40.28
2022-12-04T19:47:55.495Z,54.43
2022-12-04T19:50:43.088Z,110.03
2022-12-04T19:53:30.667Z,135.28
2022-12-04T19:56:18.266Z,163.16
2022-12-04T19:59:05.845Z,35.31
2022-12-04T20:01:53.582Z,161.05
2022-12-04T20:04:41.262Z,144.52
2022-12-04T20:07:28.915Z,128.96
2022-12-04T20:10:16.590Z,70.67
2022-12-04T20:13:04.211Z,139.87
2022-12-04T20:15:51.802Z,47.87
2022-12-04T20:18:39.383Z,49.69
2022-12-04T20:21:26.966Z,205.37
2022-12-04T20:24:14.602Z,93.47
2022-12-04T20:27:04.186Z,35.47
2022-12-04T20:29:51.823Z,34.73
2022-12-04T20:32:39.402Z,33.97
2022-12-04T20:35:26.982Z,32.37
2022-12-04T20:38:14.567Z,32.20
2022-12-04T20:41:02.167Z,31.05
2022-12-04T20:43:49.733Z,30.77
2022-12-04T20:46:37.397Z,32.75
2022-12-04T20:49:25.101Z,33.35
2022-12-04T20:52:12.685Z,32.87
2022-12-04T20:55:00.288Z,31.51
2022-12-04T20:57:47.886Z,31.07
2022-12-04T21:00:35.487Z,31.67
2022-12-04T21:03:23.069Z,33.39
2022-12-04T21:06:10.754Z,34.65
2022-12-04T21:08:58.314Z,34.90
2022-12-04T21:11:45.920Z,34.69
2022-12-04T21:14:33.535Z,34.12
2022-12-04T21:17:21.130Z,34.05
2022-12-04T21:20:08.940Z,34.39
2022-12-04T21:22:56.754Z,33.19
2022-12-04T21:25:44.340Z,35.55
2022-12-04T21:28:31.962Z,38.58
2022-12-04T21:31:19.607Z,39.90
2022-12-04T21:34:07.288Z,38.62
2022-12-04T21:36:54.943Z,31.38
2022-12-04T21:39:42.557Z,27.75
2022-12-04T21:42:30.171Z,30.70
2022-12-04T21:45:17.770Z,65.81
2022-12-04T21:48:05.358Z,22.20
2022-12-04T21:50:52.951Z,17.10
2022-12-04T21:53:42.599Z,13.97
2022-12-04T21:56:30.339Z,10.38
2022-12-04T21:59:17.887Z,7.84
2022-12-04T22:02:05.607Z,7.20
2022-12-04T22:04:53.206Z,6.09
2022-12-04T22:07:40.825Z,5.00
2022-12-04T22:10:28.486Z,4.67
2022-12-04T22:13:16.127Z,4.61
2022-12-04T22:16:03.759Z,3.99
2022-12-04T22:18:51.409Z,3.81
2022-12-04T22:21:38.950Z,3.45
2022-12-04T22:24:26.519Z,3.21
2022-12-04T22:27:14.095Z,3.56
2022-12-04T22:30:01.741Z,3.07
2022-12-04T22:32:49.343Z,3.24
2022-12-04T22:35:36.898Z,3.17
2022-12-04T22:38:24.475Z,3.33
2022-12-04T22:41:12.070Z,3.63
2022-12-04T22:43:59.639Z,3.60
2022-12-04T22:46:47.298Z,57.63
2022-12-04T22:49:34.942Z,11.17
2022-12-04T22:52:22.529Z,5.63
2022-12-04T22:55:10.108Z,5.89
2022-12-04T22:57:57.785Z,9.28
2022-12-04T23:00:45.378Z,7.85
2022-12-04T23:03:32.970Z,7.39
2022-12-04T23:06:20.734Z,6.21
2022-12-04T23:09:08.342Z,6.48
2022-12-04T23:11:55.961Z,64.58
2022-12-04T23:14:43.530Z,265.75
2022-12-04T23:17:31.132Z,246.29
2022-12-04T23:20:18.709Z,228.07
2022-12-04T23:23:06.319Z,206.62
2022-12-04T23:25:53.875Z,38.09
2022-12-04T23:28:41.443Z,10.58
2022-12-04T23:31:29.079Z,10.27
2022-12-04T23:34:16.688Z,9.57
2022-12-04T23:37:04.223Z,9.21
2022-12-04T23:39:51.815Z,9.58
2022-12-04T23:42:39.373Z,9.67
2022-12-04T23:45:26.970Z,10.26
2022-12-04T23:48:14.558Z,10.23
2022-12-04T23:51:02.125Z,10.30
2022-12-04T23:53:49.747Z,10.56
2022-12-04T23:56:37.315Z,10.26
2022-12-04T23:59:24.881Z,10.94
